createdAt,value
2022-10-07T00:00:55.661Z,51.90
2022-10-07T00:03:24.073Z,52.10
2022-10-07T00:06:01.027Z,52.00
2022-10-07T00:08:29.062Z,51.90
2022-10-07T00:10:58.734Z,52.60
2022-10-07T00:13:27.344Z,51.80
2022-10-07T00:15:55.424Z,52.00
2022-10-07T00:18:23.792Z,51.90
2022-10-07T00:20:51.679Z,51.90
2022-10-07T00:23:19.840Z,52.00
2022-10-07T00:25:47.613Z,52.00
2022-10-07T00:28:17.228Z,51.80
2022-10-07T00:30:45.100Z,52.10
2022-10-07T00:33:13.277Z,52.00
2022-10-07T00:35:41.126Z,51.90
2022-10-07T00:38:09.419Z,52.10
2022-10-07T00:40:37.209Z,52.10
2022-10-07T00:56:23.517Z,52.00
2022-10-07T00:58:52.129Z,52.00
2022-10-07T01:01:20.474Z,52.40
2022-10-07T01:03:48.465Z,51.80
2022-10-07T01:06:16.364Z,51.70
2022-10-07T01:08:45.139Z,51.80
2022-10-07T01:11:18.023Z,51.90
2022-10-07T01:13:51.661Z,52.00
2022-10-07T01:16:23.992Z,51.80
2022-10-07T01:18:55.092Z,51.80
2022-10-07T01:21:24.437Z,51.70
2022-10-07T01:24:02.753Z,51.90
2022-10-07T01:26:51.408Z,51.90
2022-10-07T01:29:20.814Z,51.80
2022-10-07T01:31:50.589Z,51.90
2022-10-07T01:34:18.703Z,51.90
2022-10-07T01:36:51.776Z,51.80
2022-10-07T01:39:22.108Z,51.90
2022-10-07T01:41:51.320Z,51.90
2022-10-07T01:44:19.016Z,52.00
2022-10-07T01:46:47.780Z,51.80
2022-10-07T01:49:15.455Z,52.00
2022-10-07T01:51:43.550Z,52.00
2022-10-07T01:54:21.683Z,51.90
2022-10-07T01:56:59.028Z,51.90
2022-10-07T01:59:38.863Z,52.10
2022-10-07T02:02:10.597Z,51.90
2022-10-07T02:04:44.340Z,51.90
2022-10-07T02:07:19.369Z,52.10
2022-10-07T02:09:49.626Z,52.20
2022-10-07T02:12:22.511Z,52.00
2022-10-07T02:14:51.742Z,52.20
2022-10-07T02:17:20.532Z,52.10
2022-10-07T02:19:49.671Z,52.20
2022-10-07T02:22:18.133Z,52.20
2022-10-07T02:24:45.799Z,51.90
2022-10-07T02:27:15.213Z,51.80
2022-10-07T02:29:44.329Z,51.90
2022-10-07T02:32:13.730Z,52.10
2022-10-07T02:34:43.438Z,52.20
2022-10-07T02:37:15.155Z,52.20
2022-10-07T02:39:46.080Z,52.00
2022-10-07T02:42:18.364Z,52.10
2022-10-07T02:44:49.445Z,52.20
2022-10-07T02:47:19.310Z,52.20
2022-10-07T02:49:49.472Z,52.20
2022-10-07T02:52:19.650Z,52.20
2022-10-07T02:54:50.201Z,52.10
2022-10-07T02:57:19.113Z,52.10
2022-10-07T02:59:49.089Z,52.20
2022-10-07T03:02:18.151Z,52.20
2022-10-07T03:04:46.500Z,52.10
2022-10-07T03:07:14.168Z,52.40
2022-10-07T03:09:42.563Z,52.30
2022-10-07T03:12:10.217Z,52.10
2022-10-07T03:14:38.171Z,52.20
2022-10-07T03:17:07.186Z,52.30
2022-10-07T03:19:35.306Z,52.30
2022-10-07T03:22:03.055Z,52.40
2022-10-07T03:24:31.444Z,52.30
2022-10-07T03:26:59.257Z,52.20
2022-10-07T03:29:27.607Z,52.30
2022-10-07T03:31:55.486Z,52.30
2022-10-07T03:34:27.133Z,52.20
2022-10-07T03:36:55.112Z,52.50
2022-10-07T03:39:23.125Z,52.40
2022-10-07T03:41:51.558Z,52.30
2022-10-07T03:44:19.764Z,52.20
2022-10-07T03:46:49.784Z,52.40
2022-10-07T03:49:18.187Z,52.20
2022-10-07T03:51:47.625Z,52.30
2022-10-07T03:54:15.829Z,52.20
2022-10-07T03:56:43.496Z,52.30
2022-10-07T03:59:11.365Z,52.20
2022-10-07T04:01:39.936Z,52.30
2022-10-07T04:04:09.439Z,52.40
2022-10-07T04:06:38.780Z,52.40
2022-10-07T04:09:08.138Z,52.10
2022-10-07T04:11:35.900Z,52.00
2022-10-07T04:14:04.060Z,52.10
2022-10-07T04:16:37.801Z,52.20
2022-10-07T04:19:07.616Z,52.10
2022-10-07T04:21:35.272Z,52.10
2022-10-07T04:24:03.566Z,52.00
2022-10-07T04:26:32.564Z,52.80
2022-10-07T04:29:01.158Z,52.20
2022-10-07T04:31:28.919Z,52.10
2022-10-07T04:33:56.627Z,52.20
2022-10-07T04:36:25.603Z,52.10
2022-10-07T04:38:53.273Z,52.20
2022-10-07T04:41:21.356Z,52.20
2022-10-07T04:43:57.432Z,52.10
2022-10-07T04:46:25.715Z,52.00
2022-10-07T04:48:53.408Z,51.90
2022-10-07T04:51:22.624Z,52.00
2022-10-07T04:53:56.500Z,52.00
2022-10-07T04:56:25.230Z,52.00
2022-10-07T04:58:54.394Z,51.80
2022-10-07T05:01:22.514Z,51.90
2022-10-07T05:03:50.258Z,51.90
2022-10-07T05:06:18.896Z,51.90
2022-10-07T05:08:46.560Z,51.90
2022-10-07T05:11:14.840Z,51.80
2022-10-07T05:13:42.718Z,51.90
2022-10-07T05:16:12.491Z,51.60
2022-10-07T05:18:40.195Z,51.80
2022-10-07T05:21:08.858Z,51.60
2022-10-07T05:23:37.144Z,51.70
2022-10-07T05:26:08.237Z,51.70
2022-10-07T05:28:36.225Z,51.80
2022-10-07T05:31:06.056Z,51.70
2022-10-07T05:33:35.212Z,51.60
2022-10-07T05:36:03.512Z,51.60
2022-10-07T05:38:31.190Z,51.40
2022-10-07T05:41:02.690Z,51.50
2022-10-07T05:43:31.342Z,51.40
2022-10-07T05:46:01.683Z,51.50
2022-10-07T05:48:30.644Z,51.40
2022-10-07T05:51:02.243Z,51.50
2022-10-07T05:53:30.412Z,51.40
2022-10-07T05:55:58.228Z,51.50
2022-10-07T05:58:26.397Z,51.40
2022-10-07T06:00:55.656Z,51.40
2022-10-07T06:03:24.470Z,51.30
2022-10-07T06:05:52.513Z,51.30
2022-10-07T06:08:22.490Z,51.40
2022-10-07T06:11:07.850Z,51.30
2022-10-07T06:13:36.014Z,51.50
2022-10-07T06:16:03.903Z,51.20
2022-10-07T06:18:32.276Z,51.30
2022-10-07T06:21:01.016Z,51.40
2022-10-07T06:23:30.853Z,51.20
2022-10-07T06:25:59.184Z,51.20
2022-10-07T06:28:27.438Z,51.20
2022-10-07T06:30:55.233Z,51.20
2022-10-07T06:33:23.522Z,51.10
2022-10-07T06:35:51.202Z,51.10
2022-10-07T06:38:19.001Z,51.10
2022-10-07T06:40:58.974Z,51.10
2022-10-07T06:43:27.580Z,51.20
2022-10-07T06:45:58.749Z,51.20
2022-10-07T06:48:27.309Z,51.20
2022-10-07T06:50:55.575Z,51.10
2022-10-07T06:53:23.872Z,51.10
2022-10-07T06:55:54.550Z,51.10
2022-10-07T06:58:24.394Z,51.00
2022-10-07T07:00:52.433Z,50.90
2022-10-07T07:03:20.877Z,50.80
2022-10-07T07:05:49.782Z,50.90
2022-10-07T07:08:20.514Z,50.90
2022-10-07T07:10:48.249Z,50.90
2022-10-07T07:13:16.068Z,50.90
2022-10-07T07:15:54.600Z,50.90
2022-10-07T07:18:22.258Z,50.90
2022-10-07T07:20:50.323Z,50.90
2022-10-07T07:23:18.139Z,50.80
2022-10-07T07:25:46.480Z,50.70
2022-10-07T07:28:15.436Z,50.70
2022-10-07T07:30:45.353Z,50.70
2022-10-07T07:33:13.297Z,50.60
2022-10-07T07:35:43.513Z,50.70
2022-10-07T07:38:11.352Z,50.50
2022-10-07T07:40:39.588Z,50.40
2022-10-07T07:43:07.581Z,50.40
2022-10-07T07:45:36.877Z,50.40
2022-10-07T07:48:06.100Z,50.30
2022-10-07T07:50:34.709Z,50.10
2022-10-07T07:53:04.700Z,50.10
2022-10-07T07:55:32.876Z,50.00
2022-10-07T07:58:00.621Z,49.50
2022-10-07T08:00:28.425Z,49.80
2022-10-07T08:02:56.296Z,49.80
2022-10-07T08:05:26.126Z,50.00
2022-10-07T08:07:54.097Z,49.90
2022-10-07T08:10:22.371Z,49.90
2022-10-07T08:12:50.439Z,49.70
2022-10-07T08:15:18.400Z,49.80
2022-10-07T08:17:46.804Z,49.70
2022-10-07T08:20:15.286Z,49.70
2022-10-07T08:22:46.065Z,49.60
2022-10-07T08:25:15.449Z,49.50
2022-10-07T08:27:43.915Z,49.50
2022-10-07T08:30:12.798Z,49.30
2022-10-07T08:32:41.073Z,49.20
2022-10-07T08:35:09.477Z,49.10
2022-10-07T08:37:37.640Z,49.00
2022-10-07T08:40:08.203Z,48.80
2022-10-07T08:42:38.314Z,48.70
2022-10-07T08:45:08.640Z,48.60
2022-10-07T08:47:38.961Z,48.40
2022-10-07T08:50:09.752Z,48.20
2022-10-07T08:52:51.204Z,48.20
2022-10-07T08:55:24.054Z,48.00
2022-10-07T08:58:22.200Z,47.70
2022-10-07T09:00:54.131Z,47.60
2022-10-07T09:03:29.472Z,47.40
2022-10-07T09:05:58.754Z,47.10
2022-10-07T09:08:30.589Z,46.90
2022-10-07T09:11:15.565Z,46.60
2022-10-07T09:13:47.191Z,46.30
2022-10-07T09:16:17.268Z,46.00
2022-10-07T09:18:47.824Z,45.80
2022-10-07T09:21:18.924Z,45.40
2022-10-07T09:23:47.396Z,45.20
2022-10-07T09:26:17.313Z,44.90
2022-10-07T09:28:45.363Z,44.70
2022-10-07T09:31:16.768Z,44.50
2022-10-07T09:33:46.500Z,44.20
2022-10-07T09:36:19.922Z,43.90
2022-10-07T09:38:48.859Z,43.60
2022-10-07T09:41:21.036Z,43.60
2022-10-07T09:44:03.167Z,43.20
2022-10-07T09:46:43.035Z,43.00
2022-10-07T09:49:31.242Z,42.80
2022-10-07T09:52:00.268Z,42.60
2022-10-07T09:54:28.784Z,42.10
2022-10-07T09:56:58.707Z,42.00
2022-10-07T09:59:29.162Z,42.40
2022-10-07T10:01:58.158Z,42.80
2022-10-07T10:04:31.623Z,43.10
2022-10-07T10:07:02.484Z,43.50
2022-10-07T10:09:31.128Z,43.80
2022-10-07T10:12:11.151Z,43.80
2022-10-07T10:14:47.477Z,44.00
2022-10-07T10:17:23.555Z,44.20
2022-10-07T10:19:51.422Z,44.10
2022-10-07T10:22:26.888Z,44.00
2022-10-07T10:25:12.518Z,44.10
2022-10-07T10:27:47.354Z,44.10
2022-10-07T10:30:19.659Z,44.00
2022-10-07T10:33:09.567Z,44.10
2022-10-07T10:35:40.960Z,44.10
2022-10-07T10:38:23.370Z,44.00
2022-10-07T10:40:55.427Z,43.80
2022-10-07T10:43:27.968Z,44.60
2022-10-07T10:46:08.649Z,44.00
2022-10-07T10:48:39.140Z,43.90
2022-10-07T10:51:13.510Z,44.00
2022-10-07T10:53:46.486Z,44.00
2022-10-07T10:56:26.642Z,43.60
2022-10-07T10:59:01.946Z,43.70
2022-10-07T11:01:34.054Z,43.60
2022-10-07T11:04:21.757Z,43.20
2022-10-07T11:06:52.663Z,41.60
2022-10-07T11:09:27.414Z,40.60
2022-10-07T11:11:58.585Z,39.40
2022-10-07T11:14:28.465Z,37.80
2022-10-07T11:16:57.637Z,37.10
2022-10-07T11:19:28.126Z,36.20
2022-10-07T11:21:57.471Z,35.50
2022-10-07T11:24:28.214Z,34.70
2022-10-07T11:26:58.880Z,33.40
2022-10-07T11:29:32.608Z,32.40
2022-10-07T11:32:03.240Z,31.80
2022-10-07T11:34:36.855Z,31.20
2022-10-07T11:37:06.917Z,30.60
2022-10-07T11:39:37.417Z,30.50
2022-10-07T11:42:08.014Z,30.00
2022-10-07T11:44:41.482Z,29.90
2022-10-07T11:47:12.517Z,29.90
2022-10-07T11:49:42.582Z,29.70
2022-10-07T11:52:11.335Z,29.80
2022-10-07T11:54:41.876Z,29.60
2022-10-07T11:57:19.526Z,29.30
2022-10-07T11:59:48.906Z,30.40
2022-10-07T12:02:41.856Z,30.80
2022-10-07T12:05:49.515Z,31.50
2022-10-07T12:08:28.062Z,32.50
2022-10-07T12:10:56.174Z,32.70
2022-10-07T12:13:38.077Z,32.90
2022-10-07T12:16:49.964Z,32.30
2022-10-07T12:19:23.608Z,32.50
2022-10-07T12:22:19.779Z,33.50
2022-10-07T12:25:11.245Z,33.30
2022-10-07T12:27:39.149Z,34.10
2022-10-07T12:30:23.881Z,35.90
2022-10-07T12:32:57.954Z,37.70
2022-10-07T12:35:42.571Z,35.40
2022-10-07T12:38:15.338Z,33.90
2022-10-07T12:40:43.632Z,32.60
2022-10-07T12:43:22.395Z,32.10
2022-10-07T12:45:50.536Z,31.60
2022-10-07T12:48:21.325Z,33.70
2022-10-07T12:50:52.395Z,35.10
2022-10-07T12:53:20.251Z,35.40
2022-10-07T12:55:49.916Z,35.70
2022-10-07T12:58:57.011Z,36.40
2022-10-07T13:01:28.537Z,37.30
2022-10-07T13:04:18.637Z,37.00
2022-10-07T13:07:27.679Z,36.00
2022-10-07T13:10:24.261Z,35.60
2022-10-07T13:12:52.263Z,35.30
2022-10-07T13:15:27.138Z,36.40
2022-10-07T13:17:57.343Z,37.20
2022-10-07T13:20:44.823Z,38.20
2022-10-07T13:23:16.257Z,38.30
2022-10-07T13:25:49.250Z,38.60
2022-10-07T13:28:17.775Z,38.80
2022-10-07T13:30:46.770Z,39.60
2022-10-07T13:33:18.776Z,40.60
2022-10-07T13:35:46.759Z,41.00
2022-10-07T13:38:26.816Z,41.40
2022-10-07T13:40:56.740Z,41.00
2022-10-07T13:43:26.016Z,41.10
2022-10-07T13:45:53.749Z,41.30
2022-10-07T13:48:23.739Z,41.20
2022-10-07T13:50:51.524Z,41.30
2022-10-07T13:53:21.591Z,41.40
2022-10-07T13:55:51.418Z,41.60
2022-10-07T13:58:19.329Z,42.10
2022-10-07T14:00:48.262Z,42.60
2022-10-07T14:03:16.706Z,43.60
2022-10-07T14:05:48.680Z,43.20
2022-10-07T14:08:21.549Z,43.50
2022-10-07T14:10:52.893Z,43.80
2022-10-07T14:13:20.978Z,44.00
2022-10-07T14:15:50.888Z,44.30
2022-10-07T14:18:19.201Z,44.50
2022-10-07T14:20:51.159Z,44.50
2022-10-07T14:23:21.754Z,44.50
2022-10-07T14:25:55.164Z,45.00
2022-10-07T14:28:29.032Z,44.80
2022-10-07T14:31:38.589Z,43.60
2022-10-07T14:34:31.897Z,43.60
2022-10-07T14:37:04.111Z,44.10
2022-10-07T14:39:33.446Z,44.30
2022-10-07T14:42:02.589Z,44.50
2022-10-07T14:44:30.715Z,44.50
2022-10-07T14:47:11.470Z,44.70
2022-10-07T14:49:41.573Z,44.90
2022-10-07T14:52:10.654Z,45.10
2022-10-07T14:54:38.775Z,45.20
2022-10-07T14:57:07.854Z,41.40
2022-10-07T14:59:36.302Z,41.80
2022-10-07T15:02:04.038Z,42.50
2022-10-07T15:04:32.263Z,45.20
2022-10-07T15:07:00.072Z,44.20
2022-10-07T15:09:28.372Z,43.10
2022-10-07T15:11:56.634Z,42.40
2022-10-07T15:14:26.216Z,41.80
2022-10-07T15:16:54.353Z,41.40
2022-10-07T15:19:23.301Z,41.10
2022-10-07T15:21:51.482Z,41.00
2022-10-07T15:24:20.331Z,40.90
2022-10-07T15:26:48.211Z,40.80
2022-10-07T15:29:16.710Z,40.70
2022-10-07T15:31:46.308Z,40.70
2022-10-07T15:34:14.313Z,40.80
2022-10-07T15:36:45.553Z,40.80
2022-10-07T15:39:13.638Z,40.80
2022-10-07T15:41:42.899Z,40.80
2022-10-07T15:44:14.479Z,40.80
2022-10-07T15:46:42.934Z,40.80
2022-10-07T15:49:12.865Z,40.80
2022-10-07T15:51:42.088Z,40.80
2022-10-07T15:54:12.111Z,41.00
2022-10-07T15:56:40.123Z,41.10
2022-10-07T15:59:08.622Z,41.10
2022-10-07T16:01:36.853Z,41.30
2022-10-07T16:04:05.569Z,41.30
2022-10-07T16:06:36.063Z,41.30
2022-10-07T16:09:04.313Z,41.40
2022-10-07T16:11:33.812Z,41.60
2022-10-07T16:14:02.052Z,41.60
2022-10-07T16:16:31.726Z,41.60
2022-10-07T16:19:00.068Z,41.80
2022-10-07T16:21:29.211Z,41.70
2022-10-07T16:23:59.687Z,41.80
2022-10-07T16:26:30.549Z,41.90
2022-10-07T16:29:16.921Z,42.00
2022-10-07T16:31:54.551Z,42.10
2022-10-07T16:34:25.235Z,42.20
2022-10-07T16:36:53.442Z,42.20
2022-10-07T16:39:22.707Z,42.30
2022-10-07T16:41:51.600Z,42.30
2022-10-07T16:44:19.999Z,42.40
2022-10-07T16:46:47.862Z,42.40
2022-10-07T16:49:16.835Z,42.50
2022-10-07T16:51:45.357Z,42.40
2022-10-07T16:54:13.986Z,42.50
2022-10-07T16:56:46.613Z,42.60
2022-10-07T16:59:18.487Z,42.50
2022-10-07T17:01:50.169Z,42.60
2022-10-07T17:04:18.386Z,42.70
2022-10-07T17:06:46.724Z,42.60
2022-10-07T17:09:14.847Z,42.70
2022-10-07T17:11:44.346Z,42.70
2022-10-07T17:14:15.994Z,42.70
2022-10-07T17:16:47.788Z,42.70
2022-10-07T17:19:17.456Z,42.80
2022-10-07T17:21:46.295Z,42.80
2022-10-07T17:24:14.353Z,42.80
2022-10-07T17:26:43.542Z,42.80
2022-10-07T17:29:13.246Z,42.90
2022-10-07T17:31:43.471Z,43.60
2022-10-07T17:34:12.282Z,43.00
2022-10-07T17:36:40.398Z,43.00
2022-10-07T17:39:09.057Z,43.00
2022-10-07T17:41:37.901Z,43.00
2022-10-07T17:44:09.539Z,43.00
2022-10-07T17:46:39.184Z,43.00
2022-10-07T17:49:08.659Z,43.10
2022-10-07T17:51:37.321Z,43.10
2022-10-07T17:54:06.263Z,43.30
2022-10-07T17:56:34.982Z,43.20
2022-10-07T17:59:03.163Z,43.30
2022-10-07T18:01:34.300Z,43.30
2022-10-07T18:04:02.821Z,43.30
2022-10-07T18:06:32.299Z,43.40
2022-10-07T18:09:02.141Z,43.50
2022-10-07T18:11:44.253Z,43.50
2022-10-07T18:14:28.617Z,43.60
2022-10-07T18:16:58.247Z,43.70
2022-10-07T18:19:26.616Z,43.70
2022-10-07T18:21:56.554Z,43.70
2022-10-07T18:24:27.500Z,43.70
2022-10-07T18:26:59.491Z,43.70
2022-10-07T18:29:27.431Z,43.80
2022-10-07T18:31:55.761Z,43.90
2022-10-07T18:34:25.388Z,43.90
2022-10-07T18:36:57.048Z,43.90
2022-10-07T18:39:27.272Z,44.00
2022-10-07T18:41:55.309Z,44.20
2022-10-07T18:44:23.306Z,44.20
2022-10-07T18:46:51.818Z,44.30
2022-10-07T18:49:19.687Z,44.40
2022-10-07T18:51:51.067Z,44.50
2022-10-07T18:54:19.178Z,44.50
2022-10-07T18:56:47.707Z,44.50
2022-10-07T18:59:16.270Z,44.70
2022-10-07T19:01:49.818Z,44.80
2022-10-07T19:04:18.729Z,44.80
2022-10-07T19:06:48.255Z,44.90
2022-10-07T19:09:17.835Z,44.80
2022-10-07T19:11:45.929Z,44.60
2022-10-07T19:14:13.167Z,44.70
2022-10-07T19:16:41.880Z,44.70
2022-10-07T19:19:12.283Z,44.60
2022-10-07T19:21:40.433Z,44.60
2022-10-07T19:24:09.691Z,44.40
2022-10-07T19:26:39.418Z,44.50
2022-10-07T19:29:08.991Z,44.30
2022-10-07T19:31:37.583Z,44.50
2022-10-07T19:34:06.716Z,44.30
2022-10-07T19:36:36.597Z,44.30
2022-10-07T19:39:05.013Z,44.30
2022-10-07T19:41:35.196Z,44.20
2022-10-07T19:44:03.017Z,44.20
2022-10-07T19:46:31.698Z,44.20
2022-10-07T19:49:00.132Z,44.10
2022-10-07T19:51:28.921Z,44.10
2022-10-07T19:53:57.139Z,44.10
2022-10-07T19:56:26.200Z,44.00
2022-10-07T19:58:55.840Z,44.10
2022-10-07T20:01:25.361Z,43.90
2022-10-07T20:03:56.835Z,44.10
2022-10-07T20:06:25.715Z,43.90
2022-10-07T20:08:53.575Z,44.00
2022-10-07T20:11:21.761Z,43.80
2022-10-07T20:13:49.454Z,43.90
2022-10-07T20:16:19.915Z,43.80
2022-10-07T20:18:48.596Z,43.80
2022-10-07T20:21:17.910Z,43.80
2022-10-07T20:23:46.323Z,43.70
2022-10-07T20:26:16.496Z,43.70
2022-10-07T20:28:44.231Z,43.70
2022-10-07T20:31:13.616Z,43.80
2022-10-07T20:33:43.669Z,43.50
2022-10-07T20:36:11.575Z,43.60
2022-10-07T20:38:56.860Z,43.90
2022-10-07T20:41:42.800Z,43.60
2022-10-07T20:44:10.604Z,43.60
2022-10-07T20:46:38.395Z,43.60
2022-10-07T20:49:12.213Z,43.50
2022-10-07T20:51:40.158Z,43.60
2022-10-07T20:54:07.942Z,43.60
2022-10-07T20:56:36.595Z,43.60
2022-10-07T20:59:04.279Z,43.60
2022-10-07T21:01:32.033Z,43.50
2022-10-07T21:03:59.708Z,43.60
2022-10-07T21:06:28.717Z,43.50
2022-10-07T21:08:57.745Z,43.50
2022-10-07T21:11:27.163Z,43.40
2022-10-07T21:13:55.296Z,43.30
2022-10-07T21:16:24.415Z,43.40
2022-10-07T21:18:52.110Z,43.30
2022-10-07T21:21:20.404Z,43.60
2022-10-07T21:23:50.005Z,43.40
2022-10-07T21:26:18.106Z,43.40
2022-10-07T21:28:48.103Z,43.40
2022-10-07T21:31:17.877Z,43.40
2022-10-07T21:33:46.623Z,43.40
2022-10-07T21:36:16.551Z,43.20
2022-10-07T21:38:44.750Z,43.40
2022-10-07T21:41:15.368Z,43.30
2022-10-07T21:43:44.089Z,43.60
2022-10-07T21:46:12.499Z,43.60
2022-10-07T21:48:40.197Z,43.80
2022-10-07T21:51:09.817Z,43.80
2022-10-07T21:53:37.685Z,43.80
2022-10-07T21:56:05.834Z,43.60
2022-10-07T21:58:35.821Z,43.90
2022-10-07T22:01:03.789Z,44.00
2022-10-07T22:03:31.510Z,44.00
2022-10-07T22:06:03.006Z,44.10
2022-10-07T22:08:36.116Z,44.20
2022-10-07T22:11:04.359Z,44.40
2022-10-07T22:13:34.495Z,44.40
2022-10-07T22:16:02.857Z,44.50
2022-10-07T22:18:33.449Z,44.60
2022-10-07T22:21:01.874Z,44.50
2022-10-07T22:23:29.539Z,44.50
2022-10-07T22:26:02.178Z,44.50
2022-10-07T22:28:30.000Z,44.60
2022-10-07T22:30:59.692Z,44.60
2022-10-07T22:33:27.456Z,44.60
2022-10-07T22:35:57.513Z,44.60
2022-10-07T22:38:25.311Z,44.60
2022-10-07T22:40:53.463Z,44.70
2022-10-07T22:43:21.140Z,44.70
2022-10-07T22:45:57.129Z,44.80
2022-10-07T22:48:26.872Z,44.60
2022-10-07T22:50:55.092Z,44.80
2022-10-07T22:53:26.288Z,45.00
2022-10-07T22:55:53.956Z,44.90
2022-10-07T22:58:21.820Z,44.90
2022-10-07T23:00:50.701Z,45.10
2022-10-07T23:03:18.997Z,45.10
2022-10-07T23:05:50.403Z,45.30
2022-10-07T23:08:18.532Z,45.30
2022-10-07T23:10:55.539Z,45.20
2022-10-07T23:13:23.248Z,44.70
2022-10-07T23:15:56.424Z,45.20
2022-10-07T23:18:24.234Z,45.40
2022-10-07T23:21:00.175Z,45.40
2022-10-07T23:23:27.968Z,45.40
2022-10-07T23:25:55.705Z,45.40
2022-10-07T23:28:25.669Z,45.50
2022-10-07T23:30:53.668Z,45.60
2022-10-07T23:33:21.747Z,45.60
2022-10-07T23:35:49.414Z,45.60
2022-10-07T23:38:18.741Z,45.70
2022-10-07T23:40:46.530Z,45.70
2022-10-07T23:43:15.002Z,45.90
2022-10-07T23:45:42.944Z,46.00
2022-10-07T23:48:11.423Z,46.00
2022-10-07T23:50:39.594Z,46.00
2022-10-07T23:53:07.494Z,46.10
2022-10-07T23:55:37.209Z,46.20
2022-10-07T23:58:05.093Z,46.70
